createdAt,value
2019-02-02T00:01:49.954Z,1.90
2019-02-02T00:04:26.526Z,1.80
2019-02-02T00:06:58.936Z,1.80
2019-02-02T00:09:28.583Z,1.70
2019-02-02T00:11:59.092Z,1.70
2019-02-02T00:14:28.653Z,1.60
2019-02-02T00:16:58.007Z,1.60
2019-02-02T00:19:27.430Z,1.60
2019-02-02T00:21:56.886Z,1.70
2019-02-02T00:24:26.258Z,1.70
2019-02-02T00:26:55.527Z,1.70
2019-02-02T00:29:24.900Z,1.70
2019-02-02T00:31:54.212Z,1.70
2019-02-02T00:34:23.611Z,1.60
2019-02-02T00:36:53.931Z,1.50
2019-02-02T00:39:23.424Z,1.50
2019-02-02T00:41:52.763Z,1.50
2019-02-02T00:44:22.149Z,1.50
2019-02-02T00:46:51.565Z,1.60
2019-02-02T00:49:21.013Z,1.70
2019-02-02T00:51:50.355Z,1.70
2019-02-02T00:54:19.758Z,1.70
2019-02-02T00:56:49.199Z,1.60
2019-02-02T00:59:18.619Z,1.50
2019-02-02T01:01:49.539Z,1.60
2019-02-02T01:04:18.960Z,1.70
2019-02-02T01:06:48.341Z,1.80
2019-02-02T01:09:22.647Z,1.80
2019-02-02T01:11:52.190Z,1.70
2019-02-02T01:14:21.552Z,1.80
2019-02-02T01:16:50.860Z,1.70
2019-02-02T01:19:20.447Z,1.60
2019-02-02T01:21:49.871Z,1.60
2019-02-02T01:24:19.463Z,1.60
2019-02-02T01:26:49.197Z,1.70
2019-02-02T01:29:18.541Z,1.80
2019-02-02T01:31:47.919Z,1.80
2019-02-02T01:34:17.229Z,1.90
2019-02-02T01:36:46.660Z,1.80
2019-02-02T01:39:16.038Z,1.90
2019-02-02T01:41:45.370Z,1.90
2019-02-02T01:44:14.730Z,2.00
2019-02-02T01:46:44.212Z,2.00
2019-02-02T01:49:13.754Z,2.00
2019-02-02T01:51:43.313Z,2.10
2019-02-02T01:54:12.683Z,2.00
2019-02-02T01:56:42.034Z,2.00
2019-02-02T01:59:11.442Z,1.90
2019-02-02T02:01:41.726Z,1.90
2019-02-02T02:04:13.456Z,1.90
2019-02-02T02:06:43.040Z,1.90
2019-02-02T02:09:12.501Z,1.90
2019-02-02T02:11:43.254Z,1.90
2019-02-02T02:14:12.822Z,1.90
2019-02-02T02:16:42.110Z,2.00
2019-02-02T02:19:12.413Z,2.00
2019-02-02T02:21:41.820Z,1.90
2019-02-02T02:24:11.095Z,1.90
2019-02-02T02:26:40.415Z,1.90
2019-02-02T02:29:09.845Z,2.00
2019-02-02T02:31:39.144Z,1.90
2019-02-02T02:34:08.666Z,1.90
2019-02-02T02:36:37.939Z,1.90
2019-02-02T02:39:09.054Z,1.90
2019-02-02T02:41:38.639Z,2.00
2019-02-02T02:44:08.116Z,2.00
2019-02-02T02:46:37.386Z,2.00
2019-02-02T02:49:06.703Z,2.00
2019-02-02T02:51:35.988Z,2.00
2019-02-02T02:54:06.074Z,2.10
2019-02-02T02:56:35.396Z,2.10
2019-02-02T02:59:04.672Z,2.00
2019-02-02T03:01:34.383Z,2.00
2019-02-02T03:04:03.918Z,2.00
2019-02-02T03:06:33.274Z,2.00
2019-02-02T03:09:02.566Z,2.00
2019-02-02T03:11:32.093Z,1.90
2019-02-02T03:14:01.294Z,2.00
2019-02-02T03:16:30.566Z,2.00
2019-02-02T03:19:01.188Z,2.10
2019-02-02T03:21:30.361Z,2.10
2019-02-02T03:23:59.645Z,2.00
2019-02-02T03:26:28.947Z,2.00
2019-02-02T03:28:58.285Z,2.00
2019-02-02T03:31:27.558Z,2.10
2019-02-02T03:33:56.839Z,2.10
2019-02-02T03:36:26.007Z,2.10
2019-02-02T03:38:55.349Z,2.10
2019-02-02T03:41:24.677Z,2.10
2019-02-02T03:43:53.949Z,2.10
2019-02-02T03:46:23.210Z,2.20
2019-02-02T03:48:52.710Z,2.10
2019-02-02T03:51:21.973Z,2.10
2019-02-02T03:53:53.113Z,2.00
2019-02-02T03:56:22.390Z,1.90
2019-02-02T03:58:51.674Z,1.90
2019-02-02T04:01:20.976Z,1.90
2019-02-02T04:03:50.306Z,1.90
2019-02-02T04:06:19.593Z,1.90
2019-02-02T04:08:50.366Z,1.70
2019-02-02T04:11:19.715Z,1.60
2019-02-02T04:13:49.034Z,1.50
2019-02-02T04:16:18.325Z,1.40
2019-02-02T04:18:47.611Z,1.40
2019-02-02T04:21:16.915Z,1.30
2019-02-02T04:23:46.208Z,1.40
2019-02-02T04:26:15.710Z,1.40
2019-02-02T04:28:45.270Z,1.40
2019-02-02T04:31:17.482Z,1.40
2019-02-02T04:33:46.718Z,1.30
2019-02-02T04:36:16.321Z,1.40
2019-02-02T04:38:45.565Z,1.30
2019-02-02T04:41:14.846Z,1.20
2019-02-02T04:43:44.090Z,1.20
2019-02-02T04:46:13.419Z,1.20
2019-02-02T04:48:42.778Z,1.20
2019-02-02T04:51:12.114Z,1.20
2019-02-02T04:53:41.379Z,1.20
2019-02-02T04:56:10.852Z,1.30
2019-02-02T04:58:40.180Z,1.30
2019-02-02T05:01:09.366Z,1.40
2019-02-02T05:03:39.006Z,1.30
2019-02-02T05:06:08.294Z,1.30
2019-02-02T05:08:37.525Z,1.30
2019-02-02T05:11:06.805Z,1.20
2019-02-02T05:13:36.065Z,1.20
2019-02-02T05:16:05.375Z,1.30
2019-02-02T05:18:34.922Z,1.40
2019-02-02T05:21:04.219Z,1.40
2019-02-02T05:23:33.472Z,1.40
2019-02-02T05:26:02.831Z,1.50
2019-02-02T05:28:32.075Z,1.40
2019-02-02T05:31:04.157Z,1.40
2019-02-02T05:33:33.409Z,1.40
2019-02-02T05:36:03.015Z,1.40
2019-02-02T05:38:32.498Z,1.60
2019-02-02T05:41:01.715Z,1.50
2019-02-02T05:43:31.090Z,1.60
2019-02-02T05:46:01.796Z,1.50
2019-02-02T05:48:31.228Z,1.40
2019-02-02T05:51:00.672Z,1.40
2019-02-02T05:53:30.081Z,1.40
2019-02-02T05:56:00.714Z,1.50
2019-02-02T05:58:30.135Z,1.50
2019-02-02T06:00:59.575Z,1.60
2019-02-02T06:03:29.013Z,1.70
2019-02-02T06:05:59.995Z,1.60
2019-02-02T06:08:29.448Z,1.60
2019-02-02T06:11:05.455Z,1.60
2019-02-02T06:13:30.544Z,1.50
2019-02-02T06:16:00.070Z,1.50
2019-02-02T06:18:30.859Z,1.50
2019-02-02T06:21:00.368Z,1.50
2019-02-02T06:23:32.990Z,1.40
2019-02-02T06:26:02.430Z,1.40
2019-02-02T06:28:35.832Z,1.40
2019-02-02T06:31:08.174Z,1.40
2019-02-02T06:33:39.474Z,1.40
2019-02-02T06:36:08.928Z,1.40
2019-02-02T06:38:38.624Z,1.50
2019-02-02T06:41:08.126Z,1.50
2019-02-02T06:43:37.637Z,1.60
2019-02-02T06:46:11.035Z,1.60
2019-02-02T06:48:42.406Z,1.50
2019-02-02T06:51:17.509Z,1.50
2019-02-02T06:53:47.650Z,1.40
2019-02-02T06:56:17.591Z,1.50
2019-02-02T06:58:47.191Z,1.50
2019-02-02T07:01:16.770Z,1.50
2019-02-02T07:03:46.210Z,1.40
2019-02-02T07:06:19.440Z,1.40
2019-02-02T07:08:50.264Z,1.40
2019-02-02T07:11:21.833Z,1.40
2019-02-02T07:13:51.562Z,1.50
2019-02-02T07:16:20.985Z,1.50
2019-02-02T07:18:50.355Z,1.60
2019-02-02T07:21:19.828Z,1.50
2019-02-02T07:23:51.724Z,1.60
2019-02-02T07:26:21.358Z,1.50
2019-02-02T07:28:53.096Z,1.60
2019-02-02T07:31:22.550Z,1.60
2019-02-02T07:33:54.801Z,1.60
2019-02-02T07:36:26.369Z,1.60
2019-02-02T07:38:55.891Z,1.70
2019-02-02T07:41:28.689Z,1.70
2019-02-02T07:43:58.494Z,1.80
2019-02-02T07:46:28.112Z,2.00
2019-02-02T07:49:26.629Z,1.90
2019-02-02T07:51:56.181Z,2.00
2019-02-02T07:54:26.103Z,2.00
2019-02-02T07:56:58.338Z,2.10
2019-02-02T07:59:26.745Z,2.00
2019-02-02T08:01:56.267Z,1.80
2019-02-02T08:04:25.620Z,1.90
2019-02-02T08:06:55.144Z,1.80
2019-02-02T08:09:25.861Z,1.70
2019-02-02T08:12:02.840Z,1.90
2019-02-02T08:14:32.569Z,2.00
2019-02-02T08:17:01.983Z,2.10
2019-02-02T08:19:31.371Z,2.10
2019-02-02T08:22:01.790Z,2.20
2019-02-02T08:24:31.716Z,2.20
2019-02-02T08:27:01.554Z,2.20
2019-02-02T08:29:33.783Z,2.20
2019-02-02T08:32:05.275Z,2.20
2019-02-02T08:34:34.867Z,2.20
2019-02-02T08:37:07.232Z,2.10
2019-02-02T08:39:36.784Z,2.10
2019-02-02T08:42:06.354Z,2.10
2019-02-02T08:44:37.268Z,2.00
2019-02-02T08:47:07.384Z,1.90
2019-02-02T08:49:40.326Z,1.90
2019-02-02T08:52:12.686Z,2.10
2019-02-02T08:54:54.907Z,2.10
2019-02-02T08:57:24.863Z,2.20
2019-02-02T08:59:55.670Z,2.10
2019-02-02T09:02:25.219Z,2.10
2019-02-02T09:04:58.993Z,2.20
2019-02-02T09:07:30.232Z,2.00
2019-02-02T09:10:05.590Z,2.10
2019-02-02T09:12:33.532Z,2.20
2019-02-02T09:15:12.742Z,2.30
2019-02-02T09:17:45.424Z,2.20
2019-02-02T09:20:18.074Z,2.30
2019-02-02T09:22:47.795Z,2.40
2019-02-02T09:25:18.194Z,2.40
2019-02-02T09:27:49.994Z,2.30
2019-02-02T09:30:35.491Z,2.30
2019-02-02T09:33:05.847Z,2.30
2019-02-02T09:35:38.150Z,2.20
2019-02-02T09:38:07.622Z,2.10
2019-02-02T09:40:45.920Z,2.20
2019-02-02T09:43:33.030Z,2.20
2019-02-02T09:46:11.042Z,2.20
2019-02-02T09:48:42.296Z,2.10
2019-02-02T09:51:12.062Z,2.20
2019-02-02T09:54:02.236Z,2.20
2019-02-02T09:56:25.530Z,2.10
2019-02-02T09:58:55.033Z,2.20
2019-02-02T10:01:27.816Z,2.20
2019-02-02T10:04:10.736Z,2.10
2019-02-02T10:06:44.483Z,2.20
2019-02-02T10:09:16.530Z,2.20
2019-02-02T10:11:47.548Z,2.20
2019-02-02T10:14:21.693Z,2.20
2019-02-02T10:16:55.661Z,2.10
2019-02-02T10:19:32.402Z,2.00
2019-02-02T10:22:01.893Z,2.00
2019-02-02T10:24:33.828Z,1.90
2019-02-02T10:27:08.862Z,1.90
2019-02-02T10:29:44.493Z,1.80
2019-02-02T10:32:16.766Z,1.80
2019-02-02T10:34:49.717Z,1.70
2019-02-02T10:37:21.566Z,1.70
2019-02-02T10:40:03.198Z,1.70
2019-02-02T10:42:33.590Z,1.70
2019-02-02T10:45:05.011Z,1.60
2019-02-02T10:47:46.010Z,1.50
2019-02-02T10:50:24.969Z,1.40
2019-02-02T10:52:54.628Z,1.30
2019-02-02T10:55:24.691Z,1.30
2019-02-02T10:58:03.210Z,1.20
2019-02-02T11:00:37.664Z,1.20
2019-02-02T11:03:07.255Z,1.30
2019-02-02T11:05:46.337Z,1.20
2019-02-02T11:08:13.168Z,1.10
2019-02-02T11:10:42.847Z,1.00
2019-02-02T11:13:12.355Z,1.00
2019-02-02T11:15:44.128Z,1.00
2019-02-02T11:18:13.266Z,0.90
2019-02-02T11:20:42.618Z,1.00
2019-02-02T11:23:12.022Z,1.00
2019-02-02T11:25:41.399Z,0.90
2019-02-02T11:28:10.777Z,0.90
2019-02-02T11:30:40.215Z,0.80
2019-02-02T11:33:09.903Z,0.80
2019-02-02T11:35:39.292Z,0.80
2019-02-02T11:38:08.706Z,0.80
2019-02-02T11:40:38.147Z,0.80
2019-02-02T11:43:07.542Z,0.80
2019-02-02T11:45:36.923Z,0.80
2019-02-02T11:48:06.254Z,0.80
2019-02-02T11:50:35.715Z,0.70
2019-02-02T11:53:05.147Z,0.80
2019-02-02T11:55:34.613Z,0.80
2019-02-02T11:58:03.993Z,0.70
2019-02-02T12:00:35.591Z,0.70
2019-02-02T12:03:05.060Z,0.70
2019-02-02T12:05:35.689Z,0.70
2019-02-02T12:08:05.144Z,0.70
2019-02-02T12:10:34.534Z,0.70
2019-02-02T12:13:04.205Z,0.80
2019-02-02T12:15:33.418Z,0.80
2019-02-02T12:18:02.620Z,0.80
2019-02-02T12:20:33.377Z,0.70
2019-02-02T12:23:03.019Z,0.70
2019-02-02T12:25:32.375Z,0.80
2019-02-02T12:28:01.801Z,0.80
2019-02-02T12:30:33.212Z,0.80
2019-02-02T12:33:03.413Z,0.80
2019-02-02T12:35:33.123Z,0.80
2019-02-02T12:38:02.404Z,0.80
2019-02-02T12:40:31.813Z,0.90
2019-02-02T12:43:01.258Z,1.00
2019-02-02T12:45:33.264Z,1.00
2019-02-02T12:48:02.565Z,0.90
2019-02-02T12:50:31.741Z,0.80
2019-02-02T12:53:01.021Z,0.80
2019-02-02T12:55:30.573Z,0.80
2019-02-02T12:58:01.278Z,0.80
2019-02-02T13:00:30.851Z,0.90
2019-02-02T13:03:00.208Z,1.00
2019-02-02T13:05:29.734Z,1.20
2019-02-02T13:15:06.801Z,1.00
2019-02-02T13:17:36.094Z,1.00
2019-02-02T13:20:08.876Z,1.00
2019-02-02T13:22:38.156Z,1.00
2019-02-02T13:25:10.082Z,0.90
2019-02-02T13:27:39.425Z,1.10
2019-02-02T13:30:12.414Z,1.20
2019-02-02T13:32:49.354Z,1.20
2019-02-02T13:35:14.939Z,1.20
2019-02-02T13:37:44.301Z,1.10
2019-02-02T13:40:15.969Z,1.00
2019-02-02T13:42:45.523Z,1.00
2019-02-02T13:45:16.398Z,1.00
2019-02-02T13:47:45.658Z,1.00
2019-02-02T13:50:16.230Z,1.00
2019-02-02T13:52:48.724Z,1.10
2019-02-02T13:55:18.429Z,1.10
2019-02-02T13:57:47.605Z,1.00
2019-02-02T14:00:21.645Z,0.90
2019-02-02T14:03:02.442Z,0.90
2019-02-02T14:05:22.268Z,0.90
2019-02-02T14:07:53.541Z,0.90
2019-02-02T14:10:30.114Z,0.80
2019-02-02T14:13:02.601Z,0.80
2019-02-02T14:15:33.416Z,0.80
2019-02-02T14:18:02.848Z,0.80
2019-02-02T14:20:33.929Z,0.80
2019-02-02T14:23:03.306Z,0.90
2019-02-02T14:25:32.840Z,0.80
2019-02-02T14:28:02.358Z,0.80
2019-02-02T14:30:31.678Z,0.90
2019-02-02T14:33:12.981Z,0.90
2019-02-02T14:35:32.134Z,0.80
2019-02-02T14:38:01.451Z,0.80
2019-02-02T14:40:30.942Z,0.80
2019-02-02T14:43:00.503Z,0.80
2019-02-02T14:45:30.129Z,0.80
2019-02-02T14:47:59.417Z,0.80
2019-02-02T14:50:31.847Z,0.80
2019-02-02T14:53:00.377Z,0.80
2019-02-02T14:55:30.201Z,0.80
2019-02-02T14:58:03.124Z,0.70
2019-02-02T15:00:32.437Z,0.70
2019-02-02T15:03:03.331Z,0.70
2019-02-02T15:05:42.654Z,0.70
2019-02-02T15:08:04.023Z,0.60
2019-02-02T15:10:33.570Z,0.60
2019-02-02T15:13:03.169Z,0.60
2019-02-02T15:15:32.477Z,0.60
2019-02-02T15:18:01.775Z,0.60
2019-02-02T15:20:33.233Z,0.60
2019-02-02T15:23:02.697Z,0.60
2019-02-02T15:25:32.304Z,0.60
2019-02-02T15:28:01.575Z,0.50
2019-02-02T15:30:31.081Z,0.40
2019-02-02T15:33:00.606Z,0.50
2019-02-02T15:35:29.913Z,0.50
2019-02-02T15:37:59.152Z,0.40
2019-02-02T15:40:31.485Z,0.50
2019-02-02T15:42:59.882Z,0.50
2019-02-02T15:45:29.940Z,0.50
2019-02-02T15:47:59.142Z,0.50
2019-02-02T15:50:28.681Z,0.40
2019-02-02T15:52:57.947Z,0.50
2019-02-02T15:55:27.274Z,0.50
2019-02-02T15:57:56.531Z,0.40
2019-02-02T16:00:33.580Z,0.50
2019-02-02T16:03:03.221Z,0.40
2019-02-02T16:05:33.294Z,0.40
2019-02-02T16:08:04.863Z,0.40
2019-02-02T16:10:34.397Z,0.40
2019-02-02T16:13:08.468Z,0.50
2019-02-02T16:15:37.883Z,0.40
2019-02-02T16:18:07.464Z,0.40
2019-02-02T16:20:41.918Z,0.40
2019-02-02T16:23:10.338Z,0.50
2019-02-02T16:25:39.985Z,0.40
2019-02-02T16:28:09.267Z,0.40
2019-02-02T16:30:38.641Z,0.40
2019-02-02T16:33:08.168Z,0.40
2019-02-02T16:35:37.454Z,0.30
2019-02-02T16:38:06.999Z,0.30
2019-02-02T16:40:36.277Z,0.30
2019-02-02T16:43:05.905Z,0.30
2019-02-02T16:45:35.631Z,0.30
2019-02-02T16:48:05.776Z,0.30
2019-02-02T16:50:35.337Z,0.30
2019-02-02T16:53:04.888Z,0.20
2019-02-02T16:55:34.453Z,0.20
2019-02-02T16:58:04.465Z,0.20
2019-02-02T17:00:33.975Z,0.20
2019-02-02T17:03:03.570Z,0.20
2019-02-02T17:05:32.891Z,0.30
2019-02-02T17:08:02.280Z,0.20
2019-02-02T17:10:33.754Z,0.20
2019-02-02T17:13:03.582Z,0.30
2019-02-02T17:15:35.170Z,0.20
2019-02-02T17:18:04.870Z,0.30
2019-02-02T17:20:45.045Z,0.20
2019-02-02T17:23:14.678Z,0.20
2019-02-02T17:25:43.970Z,0.20
2019-02-02T17:28:15.917Z,0.20
2019-02-02T17:30:45.190Z,0.10
2019-02-02T17:33:15.878Z,0.10
2019-02-02T17:35:45.892Z,0.20
2019-02-02T17:38:15.472Z,0.10
2019-02-02T17:40:44.713Z,0.10
2019-02-02T17:43:13.984Z,0.10
2019-02-02T17:45:43.577Z,0.20
2019-02-02T17:48:13.401Z,0.20
2019-02-02T17:50:43.474Z,0.20
2019-02-02T17:53:13.163Z,0.10
2019-02-02T17:55:43.858Z,0.10
2019-02-02T17:58:13.634Z,0.10
2019-02-02T18:00:51.820Z,0.10
2019-02-02T18:03:21.353Z,0.10
2019-02-02T18:05:50.929Z,0.00
2019-02-02T18:08:22.958Z,0.10
2019-02-02T18:10:52.163Z,0.10
2019-02-02T18:13:21.766Z,0.10
2019-02-02T18:15:51.159Z,0.10
2019-02-02T18:18:21.782Z,0.10
2019-02-02T18:20:51.054Z,0.00
2019-02-02T18:23:20.598Z,0.00
2019-02-02T18:25:49.974Z,0.00
2019-02-02T18:28:19.462Z,0.00
2019-02-02T18:30:49.027Z,0.00
2019-02-02T18:33:18.643Z,0.00
2019-02-02T18:35:47.893Z,-0.10
2019-02-02T18:38:17.925Z,0.00
2019-02-02T18:40:47.479Z,0.00
2019-02-02T18:43:17.464Z,0.00
2019-02-02T18:45:47.060Z,0.00
2019-02-02T18:48:16.631Z,0.00
2019-02-02T18:50:47.833Z,0.00
2019-02-02T18:53:17.743Z,0.00
2019-02-02T18:55:51.138Z,0.00
2019-02-02T18:58:23.495Z,0.00
2019-02-02T19:00:52.587Z,0.00
2019-02-02T19:03:23.376Z,0.00
2019-02-02T19:05:52.754Z,0.00
2019-02-02T19:08:22.393Z,0.00
2019-02-02T19:10:51.638Z,-0.10
2019-02-02T19:13:21.263Z,-0.10
2019-02-02T19:15:50.846Z,-0.10
2019-02-02T19:18:20.899Z,-0.10
2019-02-02T19:20:50.578Z,-0.10
2019-02-02T19:23:25.159Z,-0.10
2019-02-02T19:25:51.416Z,-0.10
2019-02-02T19:28:21.595Z,-0.10
2019-02-02T19:30:53.554Z,-0.10
2019-02-02T19:33:24.148Z,-0.10
2019-02-02T19:35:54.651Z,-0.10
2019-02-02T19:38:25.502Z,-0.10
2019-02-02T19:40:55.153Z,-0.10
2019-02-02T19:43:26.113Z,-0.10
2019-02-02T19:45:56.232Z,-0.20
2019-02-02T19:48:26.318Z,-0.10
2019-02-02T19:50:56.525Z,-0.10
2019-02-02T19:53:26.213Z,-0.10
2019-02-02T19:55:55.778Z,-0.10
2019-02-02T19:58:25.465Z,-0.10
2019-02-02T20:00:55.054Z,-0.10
2019-02-02T20:03:24.925Z,-0.10
2019-02-02T20:05:54.955Z,-0.10
2019-02-02T20:08:24.496Z,-0.10
2019-02-02T20:10:55.899Z,-0.10
2019-02-02T20:13:26.119Z,-0.10
2019-02-02T20:15:56.736Z,-0.20
2019-02-02T20:18:27.103Z,-0.20
2019-02-02T20:20:57.037Z,-0.20
2019-02-02T20:23:26.970Z,-0.20
2019-02-02T20:25:56.950Z,-0.10
2019-02-02T20:28:26.541Z,-0.10
2019-02-02T20:30:55.949Z,-0.10
2019-02-02T20:33:26.282Z,-0.10
2019-02-02T20:35:56.052Z,-0.10
2019-02-02T20:38:26.220Z,-0.10
2019-02-02T20:40:55.874Z,-0.10
2019-02-02T20:43:25.543Z,-0.10
2019-02-02T20:45:55.887Z,-0.10
2019-02-02T20:48:30.366Z,-0.10
2019-02-02T20:51:00.806Z,-0.10
2019-02-02T20:53:30.358Z,-0.10
2019-02-02T20:55:59.996Z,-0.10
2019-02-02T20:58:30.061Z,-0.10
2019-02-02T21:01:04.222Z,-0.10
2019-02-02T21:03:34.053Z,-0.10
2019-02-02T21:06:03.645Z,0.00
2019-02-02T21:08:33.323Z,0.00
2019-02-02T21:11:03.437Z,0.00
2019-02-02T21:13:36.689Z,0.00
2019-02-02T21:16:05.277Z,0.00
2019-02-02T21:18:34.968Z,-0.10
2019-02-02T21:21:06.092Z,0.00
2019-02-02T21:23:38.718Z,0.00
2019-02-02T21:26:08.373Z,-0.10
2019-02-02T21:28:49.776Z,0.00
2019-02-02T21:31:09.822Z,0.00
2019-02-02T21:33:39.704Z,0.00
2019-02-02T21:36:09.265Z,0.00
2019-02-02T21:38:38.862Z,0.00
2019-02-02T21:41:09.262Z,0.00
2019-02-02T21:43:39.067Z,0.00
2019-02-02T21:46:08.791Z,0.00
2019-02-02T21:48:38.366Z,0.00
2019-02-02T21:51:07.894Z,0.00
2019-02-02T21:53:38.209Z,-0.10
2019-02-02T21:56:07.717Z,-0.10
2019-02-02T21:58:46.873Z,-0.10
2019-02-02T22:01:23.838Z,0.00
2019-02-02T22:03:47.837Z,-0.10
2019-02-02T22:06:17.487Z,-0.10
2019-02-02T22:08:47.237Z,-0.10
2019-02-02T22:11:16.760Z,-0.10
2019-02-02T22:13:48.017Z,-0.10
2019-02-02T22:16:17.575Z,0.00
2019-02-02T22:18:47.082Z,-0.10
2019-02-02T22:21:16.725Z,-0.10
2019-02-02T22:23:46.321Z,-0.10
2019-02-02T22:26:16.345Z,-0.10
2019-02-02T22:28:45.949Z,-0.10
2019-02-02T22:31:15.479Z,-0.10
2019-02-02T22:33:45.305Z,-0.10
2019-02-02T22:36:26.645Z,-0.10
2019-02-02T22:38:49.058Z,0.00
2019-02-02T22:41:18.589Z,0.00
2019-02-02T22:43:48.119Z,-0.10
2019-02-02T22:46:17.913Z,-0.10
2019-02-02T22:48:47.478Z,-0.10
2019-02-02T22:51:17.058Z,0.00
2019-02-02T22:53:46.641Z,0.00
2019-02-02T22:56:16.233Z,0.00
2019-02-02T22:58:45.796Z,0.00
2019-02-02T23:01:45.042Z,0.00
2019-02-02T23:05:01.761Z,0.10
2019-02-02T23:08:13.117Z,0.00
2019-02-02T23:11:07.509Z,0.00
2019-02-02T23:14:27.224Z,0.10
2019-02-02T23:16:56.827Z,0.10
2019-02-02T23:19:26.093Z,0.10
2019-02-02T23:21:55.679Z,0.10
2019-02-02T23:24:25.262Z,0.10
2019-02-02T23:26:54.630Z,0.10
2019-02-02T23:29:25.522Z,0.10
2019-02-02T23:31:55.757Z,0.10
2019-02-02T23:34:25.373Z,0.20
2019-02-02T23:36:55.422Z,0.20
2019-02-02T23:39:26.498Z,0.10
2019-02-02T23:41:56.179Z,0.20
2019-02-02T23:44:25.801Z,0.20
2019-02-02T23:46:55.489Z,0.10
2019-02-02T23:49:25.112Z,0.20
2019-02-02T23:51:54.969Z,0.20
2019-02-02T23:54:24.817Z,0.10
2019-02-02T23:56:54.453Z,0.10
2019-02-02T23:59:24.053Z,0.10
